createdAt,value
2017-09-13T00:02:23.781Z,10.30
2017-09-13T00:04:52.108Z,10.20
2017-09-13T00:07:19.642Z,10.20
2017-09-13T00:09:47.221Z,10.10
2017-09-13T00:12:14.790Z,10.00
2017-09-13T00:14:42.332Z,10.00
2017-09-13T00:17:09.858Z,10.00
2017-09-13T00:19:38.177Z,9.90
2017-09-13T00:22:05.706Z,9.80
2017-09-13T00:24:33.265Z,9.80
2017-09-13T00:27:00.791Z,9.80
2017-09-13T00:29:28.318Z,9.70
2017-09-13T00:31:55.861Z,9.60
2017-09-13T00:34:23.397Z,9.50
2017-09-13T00:36:51.710Z,9.50
2017-09-13T00:39:19.257Z,9.40
2017-09-13T00:41:46.789Z,9.40
2017-09-13T00:44:15.081Z,9.30
2017-09-13T00:46:42.645Z,9.20
2017-09-13T00:49:10.175Z,9.20
2017-09-13T00:51:38.495Z,9.20
2017-09-13T00:54:06.050Z,9.10
2017-09-13T00:56:33.598Z,9.20
2017-09-13T00:59:01.182Z,9.10
2017-09-13T01:01:28.705Z,9.20
2017-09-13T01:03:57.010Z,9.20
2017-09-13T01:06:24.563Z,9.20
2017-09-13T01:08:52.132Z,9.30
2017-09-13T01:11:19.690Z,9.30
2017-09-13T01:13:47.211Z,9.30
2017-09-13T01:16:15.516Z,9.40
2017-09-13T01:18:43.050Z,9.40
2017-09-13T01:21:11.365Z,9.40
2017-09-13T01:23:38.889Z,9.30
2017-09-13T01:26:07.198Z,9.40
2017-09-13T01:28:34.745Z,9.40
2017-09-13T01:31:02.277Z,9.40
2017-09-13T01:33:30.588Z,9.50
2017-09-13T01:35:58.121Z,9.40
2017-09-13T01:38:26.436Z,9.50
2017-09-13T01:40:54.722Z,9.50
2017-09-13T01:43:23.059Z,9.50
2017-09-13T01:45:50.586Z,9.50
2017-09-13T01:48:18.140Z,9.50
2017-09-13T01:50:45.679Z,9.50
2017-09-13T01:53:13.229Z,9.50
2017-09-13T01:55:41.526Z,9.50
2017-09-13T01:58:09.052Z,9.40
2017-09-13T02:00:36.605Z,9.50
2017-09-13T02:03:04.129Z,9.50
2017-09-13T02:05:31.668Z,9.50
2017-09-13T02:07:59.210Z,9.40
2017-09-13T02:10:27.502Z,9.40
2017-09-13T02:12:55.087Z,9.40
2017-09-13T02:15:22.613Z,9.40
2017-09-13T02:17:50.157Z,9.40
2017-09-13T02:20:18.481Z,9.50
2017-09-13T02:22:46.023Z,9.40
2017-09-13T02:25:13.573Z,9.50
2017-09-13T02:27:41.122Z,9.60
2017-09-13T02:30:09.437Z,9.70
2017-09-13T02:32:36.968Z,9.70
2017-09-13T02:35:04.523Z,9.70
2017-09-13T02:37:32.824Z,9.70
2017-09-13T02:40:00.386Z,9.70
2017-09-13T02:42:27.898Z,9.70
2017-09-13T02:44:55.445Z,9.70
2017-09-13T02:47:22.985Z,9.80
2017-09-13T02:49:50.505Z,9.80
2017-09-13T02:52:18.064Z,9.80
2017-09-13T02:54:45.609Z,9.80
2017-09-13T02:57:13.893Z,9.80
2017-09-13T02:59:41.461Z,9.80
2017-09-13T03:02:09.010Z,9.90
2017-09-13T03:04:36.532Z,9.80
2017-09-13T03:07:04.841Z,9.80
2017-09-13T03:09:32.394Z,9.80
2017-09-13T03:11:59.941Z,9.80
2017-09-13T03:14:27.486Z,9.90
2017-09-13T03:16:55.037Z,9.90
2017-09-13T03:19:23.328Z,9.90
2017-09-13T03:21:51.625Z,10.00
2017-09-13T03:24:19.173Z,10.00
2017-09-13T03:26:46.700Z,10.00
2017-09-13T03:29:14.245Z,10.10
2017-09-13T03:31:41.795Z,10.10
2017-09-13T03:34:10.100Z,10.20
2017-09-13T03:36:37.650Z,10.20
2017-09-13T03:39:05.189Z,10.20
2017-09-13T03:41:33.513Z,10.40
2017-09-13T03:44:01.078Z,10.30
2017-09-13T03:46:28.632Z,10.30
2017-09-13T03:48:56.181Z,10.20
2017-09-13T03:51:23.731Z,10.20
2017-09-13T03:53:51.268Z,10.30
2017-09-13T03:56:18.842Z,10.30
2017-09-13T03:58:46.368Z,10.30
2017-09-13T04:01:14.666Z,10.30
2017-09-13T04:03:42.247Z,10.30
2017-09-13T04:06:09.773Z,10.30
2017-09-13T04:08:38.097Z,10.40
2017-09-13T04:11:05.641Z,10.50
2017-09-13T04:13:33.193Z,10.40
2017-09-13T04:16:00.726Z,10.50
2017-09-13T04:18:29.035Z,10.50
2017-09-13T04:20:56.612Z,10.50
2017-09-13T04:23:24.149Z,10.50
2017-09-13T04:25:51.706Z,10.50
2017-09-13T04:28:19.256Z,10.50
2017-09-13T04:30:47.579Z,10.40
2017-09-13T04:33:15.120Z,10.40
2017-09-13T04:35:42.673Z,10.40
2017-09-13T04:38:10.214Z,10.40
2017-09-13T04:40:37.744Z,10.50
2017-09-13T04:43:05.316Z,10.50
2017-09-13T04:45:33.737Z,10.70
2017-09-13T04:48:01.277Z,10.70
2017-09-13T04:50:28.812Z,10.80
2017-09-13T04:52:57.116Z,10.80
2017-09-13T04:55:24.663Z,10.80
2017-09-13T04:57:52.989Z,10.80
2017-09-13T05:00:20.526Z,10.80
2017-09-13T05:02:48.056Z,10.80
2017-09-13T05:05:16.366Z,10.90
2017-09-13T05:07:43.906Z,10.80
2017-09-13T05:10:11.487Z,10.90
2017-09-13T05:12:39.004Z,10.90
2017-09-13T05:15:07.321Z,11.00
2017-09-13T05:17:34.845Z,11.00
2017-09-13T05:20:03.145Z,11.00
2017-09-13T05:22:30.709Z,11.00
2017-09-13T05:24:58.254Z,11.10
2017-09-13T05:27:26.569Z,11.10
2017-09-13T05:29:54.105Z,11.10
2017-09-13T05:32:21.655Z,11.10
2017-09-13T05:34:49.189Z,11.20
2017-09-13T05:37:17.489Z,11.40
2017-09-13T05:39:45.044Z,11.40
2017-09-13T05:42:13.362Z,11.60
2017-09-13T05:44:40.911Z,11.50
2017-09-13T05:47:08.554Z,11.70
2017-09-13T05:49:36.116Z,11.90
2017-09-13T05:52:03.641Z,12.10
2017-09-13T05:54:31.962Z,12.20
2017-09-13T05:56:59.493Z,12.20
2017-09-13T05:59:27.802Z,12.30
2017-09-13T06:01:55.374Z,12.30
2017-09-13T06:04:22.909Z,12.40
2017-09-13T06:06:50.465Z,12.40
2017-09-13T06:09:17.995Z,12.40
2017-09-13T06:11:45.564Z,12.40
2017-09-13T06:14:13.897Z,12.50
2017-09-13T06:16:41.566Z,12.50
2017-09-13T06:19:09.117Z,12.50
2017-09-13T06:21:36.655Z,12.60
2017-09-13T06:24:04.205Z,12.60
2017-09-13T06:26:31.778Z,12.60
2017-09-13T06:28:59.327Z,12.70
2017-09-13T06:31:26.901Z,12.70
2017-09-13T06:33:54.446Z,12.60
2017-09-13T06:36:21.991Z,12.60
2017-09-13T06:38:49.547Z,12.50
2017-09-13T06:41:17.855Z,12.50
2017-09-13T06:43:45.432Z,12.40
2017-09-13T06:46:12.960Z,12.50
2017-09-13T06:48:40.518Z,12.50
2017-09-13T06:51:08.065Z,12.50
2017-09-13T06:53:36.359Z,12.50
2017-09-13T06:56:03.939Z,12.50
2017-09-13T06:58:31.496Z,12.50
2017-09-13T07:00:59.055Z,12.60
2017-09-13T07:03:26.597Z,12.50
2017-09-13T07:05:54.144Z,12.40
2017-09-13T07:08:21.708Z,12.40
2017-09-13T07:10:49.245Z,12.40
2017-09-13T07:13:17.593Z,12.60
2017-09-13T07:15:45.145Z,12.60
2017-09-13T07:18:12.726Z,12.60
2017-09-13T07:20:40.264Z,12.60
2017-09-13T07:23:07.816Z,12.60
2017-09-13T07:25:35.359Z,12.70
2017-09-13T07:28:03.031Z,12.80
2017-09-13T07:30:30.569Z,13.00
2017-09-13T07:32:58.138Z,13.20
2017-09-13T07:35:25.697Z,13.30
2017-09-13T07:37:53.236Z,13.20
2017-09-13T07:40:21.558Z,13.10
2017-09-13T07:42:49.120Z,13.10
2017-09-13T07:45:16.737Z,13.10
2017-09-13T07:47:44.285Z,13.20
2017-09-13T07:50:12.617Z,13.40
2017-09-13T07:52:40.159Z,13.30
2017-09-13T07:55:07.695Z,13.40
2017-09-13T07:57:35.258Z,13.40
2017-09-13T08:00:02.843Z,13.30
2017-09-13T08:02:30.401Z,13.30
2017-09-13T08:04:57.944Z,13.50
2017-09-13T08:07:25.498Z,13.70
2017-09-13T08:09:53.063Z,13.90
2017-09-13T08:12:20.596Z,13.80
2017-09-13T08:14:48.160Z,13.90
2017-09-13T08:17:15.932Z,14.00
2017-09-13T08:19:43.496Z,14.10
2017-09-13T08:22:11.042Z,14.20
2017-09-13T08:24:38.598Z,14.40
2017-09-13T08:27:06.143Z,14.50
2017-09-13T08:29:34.467Z,14.50
2017-09-13T08:32:02.048Z,14.50
2017-09-13T08:34:29.609Z,14.70
2017-09-13T08:36:57.163Z,14.70
2017-09-13T08:39:24.691Z,14.80
2017-09-13T08:41:52.268Z,14.90
2017-09-13T08:44:19.797Z,15.00
2017-09-13T08:46:47.390Z,15.20
2017-09-13T08:49:14.931Z,15.60
2017-09-13T08:51:42.511Z,15.60
2017-09-13T08:54:10.065Z,15.60
2017-09-13T08:56:37.628Z,15.50
2017-09-13T08:59:05.196Z,15.50
2017-09-13T09:01:32.730Z,15.50
2017-09-13T09:04:00.297Z,15.60
2017-09-13T09:06:27.863Z,15.60
2017-09-13T09:08:55.409Z,15.60
2017-09-13T09:11:22.977Z,15.70
2017-09-13T09:13:50.522Z,15.70
2017-09-13T09:16:18.062Z,15.80
2017-09-13T09:18:46.386Z,16.10
2017-09-13T09:21:13.931Z,16.00
2017-09-13T09:23:41.482Z,16.10
2017-09-13T09:26:09.021Z,16.40
2017-09-13T09:28:37.309Z,16.10
2017-09-13T09:31:04.862Z,16.10
2017-09-13T09:33:33.171Z,16.10
2017-09-13T09:36:00.733Z,16.10
2017-09-13T09:38:28.261Z,16.10
2017-09-13T09:40:56.605Z,15.90
2017-09-13T09:43:24.132Z,15.90
2017-09-13T09:45:51.677Z,15.90
2017-09-13T09:48:19.209Z,16.00
2017-09-13T09:50:47.630Z,16.10
2017-09-13T09:53:15.192Z,16.10
2017-09-13T09:55:42.878Z,16.30
2017-09-13T09:58:10.433Z,16.40
2017-09-13T10:00:37.989Z,16.70
2017-09-13T10:03:05.538Z,16.80
2017-09-13T10:05:33.101Z,16.70
2017-09-13T10:08:00.653Z,16.50
2017-09-13T10:10:28.190Z,16.40
2017-09-13T10:12:55.903Z,16.40
2017-09-13T10:15:23.449Z,16.80
2017-09-13T10:17:51.008Z,17.40
2017-09-13T10:20:18.553Z,17.40
2017-09-13T10:22:46.088Z,17.50
2017-09-13T10:25:13.654Z,17.70
2017-09-13T10:27:41.207Z,17.50
2017-09-13T10:30:08.753Z,17.90
2017-09-13T10:32:37.086Z,17.60
2017-09-13T10:35:04.624Z,17.60
2017-09-13T10:37:32.225Z,17.80
2017-09-13T10:40:00.530Z,17.20
2017-09-13T10:42:28.112Z,17.20
2017-09-13T10:44:55.649Z,17.00
2017-09-13T10:47:23.207Z,17.10
2017-09-13T10:49:50.748Z,17.10
2017-09-13T10:52:19.101Z,18.30
2017-09-13T10:54:46.630Z,18.20
2017-09-13T10:57:14.167Z,18.70
2017-09-13T10:59:41.709Z,19.80
2017-09-13T11:02:10.002Z,20.20
2017-09-13T11:04:37.591Z,20.10
2017-09-13T11:07:05.134Z,19.50
2017-09-13T11:09:33.142Z,18.80
2017-09-13T11:12:00.685Z,18.90
2017-09-13T11:14:28.230Z,19.50
2017-09-13T11:16:55.774Z,19.50
2017-09-13T11:19:23.310Z,19.60
2017-09-13T11:21:51.620Z,19.20
2017-09-13T11:24:19.162Z,19.20
2017-09-13T11:26:47.487Z,19.80
2017-09-13T11:29:15.089Z,19.70
2017-09-13T11:31:43.394Z,20.10
2017-09-13T11:34:10.953Z,20.00
2017-09-13T11:36:38.479Z,20.00
2017-09-13T11:39:06.043Z,20.30
2017-09-13T11:41:33.585Z,19.90
2017-09-13T11:44:01.915Z,19.10
2017-09-13T11:46:29.468Z,19.10
2017-09-13T11:48:57.040Z,18.70
2017-09-13T11:51:24.574Z,18.40
2017-09-13T11:53:52.105Z,18.10
2017-09-13T11:56:20.426Z,17.60
2017-09-13T11:58:47.958Z,17.60
2017-09-13T12:01:15.527Z,17.50
2017-09-13T12:03:43.089Z,17.40
2017-09-13T12:06:10.641Z,17.30
2017-09-13T12:08:38.170Z,17.20
2017-09-13T12:11:06.468Z,17.20
2017-09-13T12:13:34.026Z,17.20
2017-09-13T12:16:01.566Z,17.20
2017-09-13T12:18:29.886Z,17.30
2017-09-13T12:20:57.446Z,17.30
2017-09-13T12:23:25.005Z,17.30
2017-09-13T12:25:52.563Z,17.30
2017-09-13T12:28:20.126Z,17.20
2017-09-13T12:30:47.651Z,17.20
2017-09-13T12:33:15.246Z,17.20
2017-09-13T12:35:42.808Z,17.20
2017-09-13T12:38:10.344Z,17.40
2017-09-13T12:40:37.907Z,17.40
2017-09-13T12:43:05.432Z,17.30
2017-09-13T12:45:32.990Z,17.30
2017-09-13T12:48:00.526Z,17.30
2017-09-13T12:50:28.132Z,17.20
2017-09-13T12:52:56.424Z,17.30
2017-09-13T12:55:23.969Z,17.20
2017-09-13T12:57:52.313Z,17.50
2017-09-13T13:00:19.859Z,17.40
2017-09-13T13:02:47.428Z,17.60
2017-09-13T13:05:14.974Z,17.60
2017-09-13T13:07:42.618Z,17.60
2017-09-13T13:10:10.149Z,17.70
2017-09-13T13:12:38.477Z,17.60
2017-09-13T13:15:06.059Z,17.60
2017-09-13T13:17:33.591Z,17.60
2017-09-13T13:20:01.137Z,17.60
2017-09-13T13:22:28.672Z,17.50
2017-09-13T13:24:56.193Z,17.50
2017-09-13T13:27:23.751Z,17.40
2017-09-13T13:29:51.277Z,17.30
2017-09-13T13:32:18.834Z,17.40
2017-09-13T13:34:46.407Z,17.30
2017-09-13T13:37:13.946Z,17.40
2017-09-13T13:39:41.490Z,17.40
2017-09-13T13:42:09.070Z,17.40
2017-09-13T13:44:37.397Z,17.50
2017-09-13T13:47:05.037Z,17.50
2017-09-13T13:49:32.573Z,17.60
2017-09-13T13:52:00.886Z,17.50
2017-09-13T13:54:28.442Z,17.50
2017-09-13T13:56:56.002Z,17.50
2017-09-13T13:59:23.575Z,17.50
2017-09-13T14:01:51.139Z,17.60
2017-09-13T14:04:18.683Z,17.70
2017-09-13T14:06:46.264Z,17.70
2017-09-13T14:09:13.837Z,17.80
2017-09-13T14:11:41.385Z,17.80
2017-09-13T14:14:08.952Z,17.80
2017-09-13T14:16:36.482Z,17.70
2017-09-13T14:19:04.876Z,17.60
2017-09-13T14:21:33.197Z,17.50
2017-09-13T14:24:00.780Z,17.50
2017-09-13T14:26:29.102Z,17.50
2017-09-13T14:28:56.677Z,17.40
2017-09-13T14:31:24.201Z,17.60
2017-09-13T14:33:51.741Z,17.50
2017-09-13T14:36:20.071Z,17.40
2017-09-13T14:38:47.719Z,17.40
2017-09-13T14:41:15.248Z,17.40
2017-09-13T14:43:42.778Z,17.50
2017-09-13T14:46:10.331Z,17.50
2017-09-13T14:48:37.866Z,17.40
2017-09-13T14:51:05.425Z,17.50
2017-09-13T14:53:32.987Z,17.50
2017-09-13T14:56:00.527Z,17.40
2017-09-13T14:58:28.100Z,17.30
2017-09-13T15:00:55.624Z,17.40
2017-09-13T15:03:23.959Z,17.30
2017-09-13T15:05:51.550Z,17.30
2017-09-13T15:08:19.866Z,17.10
2017-09-13T15:10:47.406Z,17.10
2017-09-13T15:13:14.949Z,17.00
2017-09-13T15:15:43.242Z,16.80
2017-09-13T15:18:10.928Z,16.80
2017-09-13T15:20:38.477Z,16.70
2017-09-13T15:23:06.009Z,16.60
2017-09-13T15:25:34.341Z,16.50
2017-09-13T15:28:01.873Z,16.40
2017-09-13T15:30:29.425Z,16.50
2017-09-13T15:32:56.965Z,16.50
2017-09-13T15:35:25.295Z,16.50
2017-09-13T15:37:52.856Z,16.50
2017-09-13T15:40:20.504Z,16.60
2017-09-13T15:42:48.083Z,16.70
2017-09-13T15:45:15.621Z,16.60
2017-09-13T15:47:43.181Z,16.70
2017-09-13T15:50:10.723Z,16.60
2017-09-13T15:52:38.256Z,16.60
2017-09-13T15:55:06.577Z,16.70
2017-09-13T15:57:34.110Z,16.70
2017-09-13T16:00:01.655Z,16.80
2017-09-13T16:02:29.951Z,16.80
2017-09-13T16:04:57.637Z,16.80
2017-09-13T16:07:25.165Z,16.80
2017-09-13T16:09:53.467Z,16.90
2017-09-13T16:12:21.009Z,16.90
2017-09-13T16:14:48.546Z,16.90
2017-09-13T16:17:16.873Z,16.80
2017-09-13T16:19:44.411Z,16.80
2017-09-13T16:22:11.969Z,16.90
2017-09-13T16:24:39.499Z,16.90
2017-09-13T16:27:07.056Z,16.90
2017-09-13T16:29:34.628Z,16.90
2017-09-13T16:32:02.945Z,16.90
2017-09-13T16:34:30.608Z,16.90
2017-09-13T16:36:58.209Z,16.90
2017-09-13T16:39:25.749Z,16.90
2017-09-13T16:41:53.295Z,16.90
2017-09-13T16:44:20.858Z,16.90
2017-09-13T16:46:48.418Z,16.90
2017-09-13T16:49:15.976Z,16.80
2017-09-13T16:51:43.514Z,16.90
2017-09-13T16:54:11.091Z,16.80
2017-09-13T16:56:38.659Z,16.90
2017-09-13T16:59:06.197Z,16.90
2017-09-13T17:01:33.790Z,16.90
2017-09-13T17:04:01.317Z,16.90
2017-09-13T17:06:28.873Z,17.00
2017-09-13T17:08:56.398Z,17.00
2017-09-13T17:11:23.970Z,17.00
2017-09-13T17:13:52.279Z,16.90
2017-09-13T17:16:19.808Z,16.90
2017-09-13T17:18:48.161Z,16.90
2017-09-13T17:21:15.699Z,16.80
2017-09-13T17:23:43.295Z,16.90
2017-09-13T17:26:11.599Z,16.90
2017-09-13T17:28:39.129Z,16.80
2017-09-13T17:31:07.454Z,16.60
2017-09-13T17:33:34.987Z,16.70
2017-09-13T17:36:02.552Z,16.60
2017-09-13T17:38:30.105Z,16.60
2017-09-13T17:40:57.665Z,16.60
2017-09-13T17:43:25.975Z,16.50
2017-09-13T17:45:53.521Z,16.50
2017-09-13T17:48:21.086Z,16.50
2017-09-13T17:50:48.609Z,16.50
2017-09-13T17:53:16.947Z,16.60
2017-09-13T17:55:44.485Z,16.50
2017-09-13T17:58:12.018Z,16.60
2017-09-13T18:00:39.577Z,16.60
2017-09-13T18:03:07.132Z,16.60
2017-09-13T18:05:35.495Z,16.60
2017-09-13T18:08:03.054Z,16.60
2017-09-13T18:10:30.618Z,16.60
2017-09-13T18:12:58.953Z,16.60
2017-09-13T18:15:26.525Z,16.60
2017-09-13T18:17:54.073Z,16.70
2017-09-13T18:20:21.633Z,16.70
2017-09-13T18:22:49.162Z,16.80
2017-09-13T18:25:16.742Z,17.00
2017-09-13T18:27:44.283Z,17.10
2017-09-13T18:30:11.840Z,17.20
2017-09-13T18:32:39.402Z,17.40
2017-09-13T18:35:06.982Z,17.40
2017-09-13T18:37:34.541Z,17.40
2017-09-13T18:40:02.101Z,17.40
2017-09-13T18:42:29.659Z,17.50
2017-09-13T18:44:57.185Z,17.60
2017-09-13T18:47:25.509Z,17.70
2017-09-13T18:49:53.046Z,17.70
2017-09-13T18:52:20.625Z,17.70
2017-09-13T18:54:48.194Z,17.80
2017-09-13T18:57:15.787Z,17.90
2017-09-13T18:59:43.329Z,17.90
2017-09-13T19:02:10.894Z,17.90
2017-09-13T19:04:38.446Z,18.10
2017-09-13T19:07:06.005Z,18.10
2017-09-13T19:09:33.579Z,18.20
2017-09-13T19:12:01.914Z,18.30
2017-09-13T19:14:29.469Z,18.30
2017-09-13T19:16:57.140Z,18.30
2017-09-13T19:19:24.674Z,18.40
2017-09-13T19:21:52.235Z,18.40
2017-09-13T19:24:20.549Z,18.50
2017-09-13T19:26:48.202Z,18.50
2017-09-13T19:29:15.772Z,18.50
2017-09-13T19:31:43.310Z,18.60
2017-09-13T19:34:10.837Z,18.60
2017-09-13T19:36:39.176Z,18.70
2017-09-13T19:39:06.713Z,18.70
2017-09-13T19:41:34.237Z,18.70
2017-09-13T19:44:01.813Z,18.70
2017-09-13T19:46:29.362Z,18.70
2017-09-13T19:48:56.925Z,18.80
2017-09-13T19:51:24.465Z,18.80
2017-09-13T19:53:52.801Z,18.80
2017-09-13T19:56:20.395Z,18.70
2017-09-13T19:58:47.957Z,18.80
2017-09-13T20:01:15.817Z,18.90
2017-09-13T20:03:43.370Z,18.90
2017-09-13T20:06:10.957Z,19.00
2017-09-13T20:08:39.256Z,18.90
2017-09-13T20:11:06.796Z,18.90
2017-09-13T20:13:35.106Z,19.10
2017-09-13T20:16:02.663Z,19.10
2017-09-13T20:18:30.216Z,19.10
2017-09-13T20:20:57.776Z,19.00
2017-09-13T20:23:25.312Z,18.90
2017-09-13T20:25:53.653Z,19.00
2017-09-13T20:28:21.206Z,19.00
2017-09-13T20:30:48.780Z,19.10
2017-09-13T20:33:16.328Z,19.10
2017-09-13T20:35:43.854Z,19.20
2017-09-13T20:38:11.441Z,19.30
2017-09-13T20:40:39.016Z,19.40
2017-09-13T20:43:06.549Z,19.30
2017-09-13T20:45:34.082Z,19.30
2017-09-13T20:48:01.626Z,19.30
2017-09-13T20:50:30.065Z,19.30
2017-09-13T20:52:57.624Z,19.30
2017-09-13T20:55:25.172Z,19.30
2017-09-13T20:57:52.719Z,19.30
2017-09-13T21:00:20.245Z,19.30
2017-09-13T21:02:48.581Z,19.20
2017-09-13T21:05:16.124Z,19.20
2017-09-13T21:07:43.889Z,19.30
2017-09-13T21:10:11.422Z,19.30
2017-09-13T21:12:38.950Z,19.40
2017-09-13T21:15:06.503Z,19.50
2017-09-13T21:17:34.814Z,19.50
2017-09-13T21:20:02.418Z,19.50
2017-09-13T21:22:29.945Z,19.50
2017-09-13T21:24:57.485Z,19.40
2017-09-13T21:27:25.802Z,19.50
2017-09-13T21:29:53.338Z,19.40
2017-09-13T21:32:20.894Z,19.50
2017-09-13T21:34:48.479Z,19.50
2017-09-13T21:37:16.024Z,19.50
2017-09-13T21:39:43.809Z,19.50
2017-09-13T21:42:11.370Z,19.50
2017-09-13T21:44:38.990Z,19.60
2017-09-13T21:47:07.300Z,19.60
2017-09-13T21:49:34.852Z,19.60
2017-09-13T21:52:02.389Z,19.60
2017-09-13T21:54:30.699Z,19.50
2017-09-13T21:56:58.225Z,19.50
2017-09-13T21:59:26.537Z,19.50
2017-09-13T22:01:54.078Z,19.50
2017-09-13T22:04:21.629Z,19.60
2017-09-13T22:06:49.173Z,19.60
2017-09-13T22:09:17.484Z,19.50
2017-09-13T22:11:45.014Z,19.50
2017-09-13T22:14:13.346Z,19.50
2017-09-13T22:16:40.886Z,19.50
2017-09-13T22:19:08.447Z,19.60
2017-09-13T22:21:36.001Z,19.50
2017-09-13T22:24:03.567Z,19.50
2017-09-13T22:26:31.126Z,19.50
2017-09-13T22:28:58.681Z,19.50
2017-09-13T22:31:26.224Z,19.50
2017-09-13T22:33:53.786Z,19.40
2017-09-13T22:36:21.313Z,19.50
2017-09-13T22:38:49.643Z,19.50
2017-09-13T22:41:17.193Z,19.50
2017-09-13T22:43:44.742Z,19.50
2017-09-13T22:46:12.285Z,19.50
2017-09-13T22:48:40.617Z,19.40
2017-09-13T22:51:08.150Z,19.40
2017-09-13T22:53:35.696Z,19.40
2017-09-13T22:56:03.248Z,19.40
2017-09-13T22:58:31.551Z,19.50
2017-09-13T23:00:59.123Z,19.50
2017-09-13T23:03:26.665Z,19.50
2017-09-13T23:05:54.429Z,19.40
2017-09-13T23:08:22.001Z,19.30
2017-09-13T23:10:49.564Z,19.30
2017-09-13T23:13:17.719Z,19.30
2017-09-13T23:15:45.254Z,19.20
2017-09-13T23:18:13.582Z,19.30
2017-09-13T23:20:41.127Z,19.40
2017-09-13T23:23:08.695Z,19.30
2017-09-13T23:25:36.224Z,19.30
2017-09-13T23:28:03.785Z,19.30
2017-09-13T23:30:31.341Z,19.30
2017-09-13T23:32:59.657Z,19.40
2017-09-13T23:35:27.211Z,19.30
2017-09-13T23:37:54.757Z,19.40
2017-09-13T23:40:23.081Z,19.40
2017-09-13T23:42:50.627Z,19.40
2017-09-13T23:45:18.198Z,19.30
2017-09-13T23:47:47.431Z,19.20
2017-09-13T23:50:15.771Z,19.20
2017-09-13T23:52:44.148Z,19.20
2017-09-13T23:55:11.682Z,19.10
2017-09-13T23:57:39.493Z,19.30
